Silia T — A8RW7 — position and weather

sailwx.info

Track history (hours):
 
Tides and Currents Weather Stations Pressure Air Temp Water Temp Dewpoint Dewpoint Depression Visibility Wind Speed Wind Dir Waves Ship Positions

Silia T

Last reported at 2018-May-30 03:25 UTC. Time now 2018-Jun-22 13:22 UTC.
Position S 33°51' E 017°44'.
Warning: this ship's position is 23 days out of date.

Length 274 m; draft 9.3 m.

Type: Ship (hazmat cat A). MMSI: 636014171.

Date/timePositionNaut miles runAvg speedWind from/ knotsBaromVisibWave heightAir tempDewpointWater temp
2018-May-30 03:25S 33°51' E 017°44'712.5
2018-May-30 02:54S 33°57' E 017°47'512.2
2018-May-30 02:30S 34°02' E 017°49'611.9
2018-May-30 02:01S 34°07' E 017°51'612.3
2018-May-30 01:31S 34°13' E 017°54'612.4
2018-May-30 01:01S 34°19' E 017°57'612.4
2018-May-30 00:30S 34°24' E 017°60'612.2
2018-May-30 00:01S 34°30' E 018°03'712.5
2018-May-29 23:27S 34°36' E 018°06'611.8
2018-May-29 22:55S 34°41' E 018°11'511.5
2018-May-29 22:29S 34°43' E 018°16'611.3
2018-May-29 21:57S 34°45' E 018°23'  
Track history (hours):
 
Tides and Currents Weather Stations Pressure Air Temp Water Temp Dewpoint Dewpoint Depression Visibility Wind Speed Wind Dir Waves Ship Positions

Silia T

Last reported at 2018-May-30 03:25 UTC. Time now 2018-Jun-22 13:22 UTC.
Position S 33°51' E 017°44'.
Warning: this ship's position is 23 days out of date.

Length 274 m; draft 9.3 m.

Type: Ship (hazmat cat A). MMSI: 636014171.

Date/timePositionNaut miles runAvg speedWind from/ knotsBaromVisibWave heightAir tempDewpointWater temp
2018-May-30 03:25S 33°51' E 017°44'712.5
2018-May-30 02:54S 33°57' E 017°47'512.2
2018-May-30 02:30S 34°02' E 017°49'611.9
2018-May-30 02:01S 34°07' E 017°51'612.3
2018-May-30 01:31S 34°13' E 017°54'612.4
2018-May-30 01:01S 34°19' E 017°57'612.4
2018-May-30 00:30S 34°24' E 017°60'612.2
2018-May-30 00:01S 34°30' E 018°03'712.5
2018-May-29 23:27S 34°36' E 018°06'611.8
2018-May-29 22:55S 34°41' E 018°11'511.5
2018-May-29 22:29S 34°43' E 018°16'611.3
2018-May-29 21:57S 34°45' E 018°23'  

Dump ship's entire track history